createdAt,value
2023-04-30T00:01:56.685Z,100301.75
2023-04-30T00:04:24.071Z,100307.97
2023-04-30T00:06:51.071Z,100312.44
2023-04-30T00:09:17.938Z,100309.97
2023-04-30T00:11:44.918Z,100312.75
2023-04-30T00:14:11.899Z,100316.41
2023-04-30T00:16:38.822Z,100324.28
2023-04-30T00:19:08.190Z,100315.78
2023-04-30T00:21:35.161Z,100311.72
2023-04-30T00:24:02.358Z,100316.91
2023-04-30T00:26:29.912Z,100317.88
2023-04-30T00:28:57.666Z,100324.09
2023-04-30T00:31:34.334Z,100325.84
2023-04-30T00:34:05.947Z,100334.69
2023-04-30T00:36:33.430Z,100333.97
2023-04-30T00:39:00.623Z,100330.63
2023-04-30T00:41:28.522Z,100331.56
2023-04-30T00:43:55.578Z,100329.06
2023-04-30T00:46:22.746Z,100336.13
2023-04-30T00:48:50.410Z,100327.59
2023-04-30T00:51:17.511Z,100331.16
2023-04-30T00:53:44.543Z,100329.47
2023-04-30T00:56:13.591Z,100315.03
2023-04-30T00:58:41.610Z,100322.81
2023-04-30T01:01:08.975Z,100318.78
2023-04-30T01:03:36.721Z,100327.19
2023-04-30T01:06:04.426Z,100327.28
2023-04-30T01:08:32.469Z,100331.75
2023-04-30T01:11:26.472Z,100337.06
2023-04-30T01:14:08.797Z,100321.78
2023-04-30T01:16:43.836Z,100334.03
2023-04-30T01:19:38.615Z,100340.06
2023-04-30T01:22:37.447Z,100337.56
2023-04-30T01:25:35.459Z,100336.94
2023-04-30T01:28:08.397Z,100340.56
2023-04-30T01:30:37.285Z,100339.81
2023-04-30T01:33:04.575Z,100329.84
2023-04-30T01:35:49.228Z,100340.13
2023-04-30T01:38:35.603Z,100349.97
2023-04-30T01:41:34.662Z,100345.63
2023-04-30T01:44:10.894Z,100346.53
2023-04-30T01:46:38.217Z,100343.22
2023-04-30T01:49:59.532Z,100342.41
2023-04-30T01:52:47.193Z,100346.00
2023-04-30T01:55:44.718Z,100341.75
2023-04-30T01:58:17.119Z,100339.16
2023-04-30T02:00:44.083Z,100339.91
2023-04-30T02:03:11.264Z,100344.13
2023-04-30T02:05:41.919Z,100344.25
2023-04-30T02:08:08.855Z,100338.13
2023-04-30T02:10:36.018Z,100337.31
2023-04-30T02:13:03.437Z,100324.22
2023-04-30T02:15:30.400Z,100330.16
2023-04-30T02:17:57.377Z,100322.38
2023-04-30T02:20:24.534Z,100323.81
2023-04-30T02:22:53.188Z,100310.84
2023-04-30T02:25:20.243Z,100315.19
2023-04-30T02:27:47.826Z,100331.09
2023-04-30T02:30:14.841Z,100322.38
2023-04-30T02:32:41.839Z,100316.06
2023-04-30T02:35:09.860Z,100307.22
2023-04-30T02:37:36.965Z,100305.38
2023-04-30T02:40:04.239Z,100296.53
2023-04-30T02:42:31.601Z,100301.53
2023-04-30T02:44:58.482Z,100298.72
2023-04-30T02:47:25.645Z,100296.75
2023-04-30T02:49:53.008Z,100287.84
2023-04-30T02:52:20.193Z,100285.84
2023-04-30T02:54:47.226Z,100283.78
2023-04-30T02:57:14.258Z,100287.72
2023-04-30T02:59:46.018Z,100285.53
2023-04-30T03:02:13.754Z,100288.44
2023-04-30T03:04:41.382Z,100284.50
2023-04-30T03:07:08.378Z,100286.03
2023-04-30T03:09:36.581Z,100286.84
2023-04-30T03:12:03.752Z,100291.19
2023-04-30T03:14:30.859Z,100289.41
2023-04-30T03:16:57.869Z,100285.69
2023-04-30T03:19:25.650Z,100285.63
2023-04-30T03:21:52.924Z,100278.59
2023-04-30T03:24:20.117Z,100278.47
2023-04-30T03:26:47.513Z,100277.03
2023-04-30T03:29:14.522Z,100271.84
2023-04-30T03:31:41.619Z,100278.00
2023-04-30T03:34:09.210Z,100268.53
2023-04-30T03:36:36.427Z,100265.69
2023-04-30T03:39:04.907Z,100255.06
2023-04-30T03:41:31.961Z,100256.38
2023-04-30T03:43:58.872Z,100248.00
2023-04-30T03:46:26.367Z,100252.53
2023-04-30T03:48:53.431Z,100252.66
2023-04-30T03:51:21.750Z,100259.22
2023-04-30T03:53:49.129Z,100248.09
2023-04-30T03:56:18.423Z,100251.41
2023-04-30T03:58:45.481Z,100247.06
2023-04-30T04:01:12.626Z,100251.44
2023-04-30T04:03:39.748Z,100257.22
2023-04-30T04:06:06.923Z,100248.31
2023-04-30T04:08:34.275Z,100251.34
2023-04-30T04:11:01.336Z,100245.75
2023-04-30T04:13:28.387Z,100242.06
2023-04-30T04:15:55.717Z,100248.66
2023-04-30T04:18:22.951Z,100245.72
2023-04-30T04:20:50.111Z,100241.16
2023-04-30T04:23:17.370Z,100234.09
2023-04-30T04:25:44.458Z,100235.16
2023-04-30T04:28:11.780Z,100237.06
2023-04-30T04:30:40.967Z,100234.13
2023-04-30T04:33:08.973Z,100238.59
2023-04-30T04:35:36.374Z,100232.88
2023-04-30T04:38:03.473Z,100232.63
2023-04-30T04:40:31.792Z,100221.91
2023-04-30T04:42:59.135Z,100225.69
2023-04-30T04:45:26.148Z,100219.09
2023-04-30T04:47:53.806Z,100214.09
2023-04-30T04:50:21.709Z,100210.28
2023-04-30T04:52:48.950Z,100212.09
2023-04-30T04:55:16.242Z,100213.78
2023-04-30T04:57:43.540Z,100213.53
2023-04-30T05:00:24.365Z,100220.00
2023-04-30T05:02:56.901Z,100218.75
2023-04-30T05:05:24.129Z,100220.56
2023-04-30T05:07:52.696Z,100219.28
2023-04-30T05:10:19.928Z,100219.22
2023-04-30T05:12:47.599Z,100218.31
2023-04-30T05:15:14.756Z,100222.16
2023-04-30T05:17:42.072Z,100216.34
2023-04-30T05:20:15.923Z,100214.81
2023-04-30T05:22:46.065Z,100202.78
2023-04-30T05:25:13.224Z,100208.00
2023-04-30T05:27:40.416Z,100208.78
2023-04-30T05:30:08.411Z,100209.38
2023-04-30T05:32:38.840Z,100203.56
2023-04-30T05:35:06.421Z,100200.56
2023-04-30T05:37:33.427Z,100193.88
2023-04-30T05:40:00.530Z,100200.59
2023-04-30T05:42:27.960Z,100205.88
2023-04-30T05:44:55.877Z,100205.56
2023-04-30T05:47:22.867Z,100203.16
2023-04-30T05:49:58.398Z,100195.75
2023-04-30T05:52:26.182Z,100190.47
2023-04-30T05:54:57.118Z,100203.59
2023-04-30T05:57:32.037Z,100199.91
2023-04-30T06:00:11.111Z,100191.91
2023-04-30T06:02:41.361Z,100202.22
2023-04-30T06:05:09.148Z,100196.09
2023-04-30T06:07:42.685Z,100207.03
2023-04-30T06:10:10.316Z,100214.34
2023-04-30T06:12:37.782Z,100215.81
2023-04-30T06:15:05.530Z,100226.09
2023-04-30T06:17:33.980Z,100216.28
2023-04-30T06:20:05.078Z,100219.34
2023-04-30T06:22:35.125Z,100221.09
2023-04-30T06:25:02.078Z,100211.28
2023-04-30T06:27:32.598Z,100220.25
2023-04-30T06:30:01.142Z,100220.50
2023-04-30T06:32:32.208Z,100223.19
2023-04-30T06:34:59.131Z,100223.34
2023-04-30T06:37:26.190Z,100219.34
2023-04-30T06:39:53.539Z,100213.34
2023-04-30T06:42:20.856Z,100209.84
2023-04-30T06:44:48.391Z,100207.63
2023-04-30T06:47:15.383Z,100206.03
2023-04-30T06:49:43.583Z,100193.13
2023-04-30T06:52:10.701Z,100203.16
2023-04-30T06:54:39.758Z,100200.31
2023-04-30T06:57:07.366Z,100196.00
2023-04-30T06:59:34.504Z,100191.69
2023-04-30T07:02:01.633Z,100183.41
2023-04-30T07:04:28.959Z,100177.16
2023-04-30T07:06:55.818Z,100172.13
2023-04-30T07:09:22.839Z,100172.69
2023-04-30T07:11:50.292Z,100169.22
2023-04-30T07:14:17.244Z,100166.78
2023-04-30T07:16:45.425Z,100161.63
2023-04-30T07:19:12.470Z,100165.97
2023-04-30T07:21:39.413Z,100168.00
2023-04-30T07:24:06.482Z,100164.13
2023-04-30T07:26:33.613Z,100157.47
2023-04-30T07:29:00.899Z,100154.09
2023-04-30T07:31:28.053Z,100146.13
2023-04-30T07:33:55.995Z,100142.22
2023-04-30T07:36:23.210Z,100139.34
2023-04-30T07:38:50.383Z,100140.75
2023-04-30T07:41:17.395Z,100138.75
2023-04-30T07:43:44.732Z,100124.88
2023-04-30T07:46:12.032Z,100117.91
2023-04-30T07:48:39.206Z,100108.41
2023-04-30T07:51:06.313Z,100102.44
2023-04-30T07:53:33.296Z,100098.66
2023-04-30T07:56:00.233Z,100089.03
2023-04-30T07:58:27.205Z,100084.44
2023-04-30T08:00:54.222Z,100077.53
2023-04-30T08:03:21.378Z,100076.97
2023-04-30T08:05:48.601Z,100071.59
2023-04-30T08:08:15.552Z,100069.47
2023-04-30T08:10:42.700Z,100054.38
2023-04-30T08:13:09.881Z,100051.53
2023-04-30T08:15:38.326Z,100042.78
2023-04-30T08:18:05.943Z,100035.13
2023-04-30T08:20:33.203Z,100031.38
2023-04-30T08:23:04.920Z,100040.84
2023-04-30T08:25:32.445Z,100020.28
2023-04-30T08:27:59.849Z,100021.97
2023-04-30T08:30:26.988Z,100015.19
2023-04-30T08:32:56.771Z,100022.84
2023-04-30T08:35:24.806Z,100011.75
2023-04-30T08:37:51.992Z,100011.91
2023-04-30T08:40:19.120Z,100008.16
2023-04-30T08:42:54.144Z,100013.50
2023-04-30T08:45:23.608Z,100006.50
2023-04-30T08:47:52.197Z,100008.94
2023-04-30T08:50:19.530Z,100002.03
2023-04-30T08:52:46.599Z,100001.09
2023-04-30T08:55:13.653Z,99994.66
2023-04-30T08:57:40.817Z,99998.03
2023-04-30T09:00:08.607Z,99989.31
2023-04-30T09:02:42.772Z,99987.34
2023-04-30T09:05:14.723Z,99974.00
2023-04-30T09:08:01.097Z,99968.00
2023-04-30T09:10:33.843Z,99964.00
2023-04-30T09:13:12.164Z,99954.81
2023-04-30T09:15:41.945Z,99953.47
2023-04-30T09:18:17.611Z,99943.06
2023-04-30T09:20:55.394Z,99945.16
2023-04-30T09:23:22.629Z,99946.38
2023-04-30T09:25:49.797Z,99943.22
2023-04-30T09:28:16.923Z,99938.28
2023-04-30T09:30:44.036Z,99939.31
2023-04-30T09:33:12.287Z,99923.66
2023-04-30T09:35:41.979Z,99910.50
2023-04-30T09:38:32.112Z,99907.72
2023-04-30T09:41:01.212Z,99908.81
2023-04-30T09:43:34.419Z,99897.31
2023-04-30T09:46:11.653Z,99897.63
2023-04-30T09:49:05.055Z,99893.06
2023-04-30T09:51:32.652Z,99894.50
2023-04-30T09:54:03.045Z,99894.81
2023-04-30T09:56:34.187Z,99879.75
2023-04-30T09:59:04.676Z,99894.09
2023-04-30T10:01:33.029Z,99899.53
2023-04-30T10:04:00.168Z,99891.44
2023-04-30T10:06:29.969Z,99892.88
2023-04-30T10:08:58.467Z,99889.91
2023-04-30T10:11:28.739Z,99885.00
2023-04-30T10:14:08.644Z,99894.09
2023-04-30T10:16:52.046Z,99897.22
2023-04-30T10:19:30.388Z,99896.22
2023-04-30T10:21:57.823Z,99880.38
2023-04-30T10:24:25.770Z,99893.91
2023-04-30T10:26:52.993Z,99889.97
2023-04-30T10:29:20.009Z,99890.75
2023-04-30T10:31:49.558Z,99893.41
2023-04-30T10:34:35.651Z,99893.69
2023-04-30T10:37:12.257Z,99895.81
2023-04-30T10:39:39.596Z,99897.47
2023-04-30T10:42:10.105Z,99889.03
2023-04-30T10:44:37.946Z,99882.25
2023-04-30T10:47:06.802Z,99873.31
2023-04-30T10:49:34.034Z,99870.63
2023-04-30T10:52:03.845Z,99884.31
2023-04-30T10:54:36.783Z,99880.63
2023-04-30T10:57:20.441Z,99876.16
2023-04-30T10:59:50.746Z,99879.66
2023-04-30T11:02:18.119Z,99886.59
2023-04-30T11:05:07.809Z,99892.47
2023-04-30T11:07:35.319Z,99888.19
2023-04-30T11:10:02.694Z,99891.09
2023-04-30T11:12:30.913Z,99889.44
2023-04-30T11:15:13.420Z,99886.22
2023-04-30T11:17:40.993Z,99876.91
2023-04-30T11:20:13.078Z,99864.50
2023-04-30T11:22:40.615Z,99865.75
2023-04-30T11:25:09.991Z,99850.69
2023-04-30T11:27:39.048Z,99842.03
2023-04-30T11:30:17.467Z,99843.75
2023-04-30T11:32:47.807Z,99845.31
2023-04-30T11:35:19.030Z,99838.16
2023-04-30T11:37:47.806Z,99822.06
2023-04-30T11:40:15.860Z,99825.84
2023-04-30T11:42:46.175Z,99813.66
2023-04-30T11:45:21.067Z,99816.88
2023-04-30T11:47:54.244Z,99803.97
2023-04-30T11:50:29.353Z,99797.28
2023-04-30T11:52:58.161Z,99797.38
2023-04-30T11:55:26.848Z,99797.94
2023-04-30T11:57:56.116Z,99796.72
2023-04-30T12:00:30.527Z,99789.50
2023-04-30T12:03:01.633Z,99795.06
2023-04-30T12:05:29.314Z,99791.50
2023-04-30T12:07:59.896Z,99801.00
2023-04-30T12:10:27.472Z,99795.66
2023-04-30T12:12:55.536Z,99796.28
2023-04-30T12:15:29.247Z,99784.63
2023-04-30T12:17:57.473Z,99785.91
2023-04-30T12:20:31.285Z,99779.25
2023-04-30T12:22:58.806Z,99779.03
2023-04-30T12:25:32.013Z,99771.06
2023-04-30T12:27:59.791Z,99772.03
2023-04-30T12:30:27.680Z,99767.88
2023-04-30T12:32:58.280Z,99773.56
2023-04-30T12:35:27.982Z,99779.84
2023-04-30T12:38:07.746Z,99786.81
2023-04-30T12:40:35.821Z,99791.06
2023-04-30T12:43:07.750Z,99770.56
2023-04-30T12:45:57.967Z,99790.19
2023-04-30T12:48:50.351Z,99792.81
2023-04-30T12:51:20.432Z,99788.13
2023-04-30T12:53:52.659Z,99784.25
2023-04-30T12:56:19.919Z,99779.34
2023-04-30T12:58:51.816Z,99775.81
2023-04-30T13:01:26.564Z,99770.94
2023-04-30T13:03:54.259Z,99775.50
2023-04-30T13:06:24.610Z,99758.88
2023-04-30T13:08:58.456Z,99757.91
2023-04-30T13:11:34.870Z,99757.91
2023-04-30T13:14:13.877Z,99753.00
2023-04-30T13:16:43.403Z,99749.16
2023-04-30T13:19:14.470Z,99756.56
2023-04-30T13:21:41.838Z,99753.16
2023-04-30T13:24:32.837Z,99754.44
2023-04-30T13:27:00.231Z,99761.38
2023-04-30T13:29:27.821Z,99745.56
2023-04-30T13:31:56.297Z,99742.63
2023-04-30T13:34:38.772Z,99744.59
2023-04-30T13:37:09.068Z,99738.72
2023-04-30T13:39:36.046Z,99728.19
2023-04-30T13:42:04.226Z,99721.28
2023-04-30T13:44:33.396Z,99723.59
2023-04-30T13:47:16.490Z,99713.41
2023-04-30T13:49:43.444Z,99719.34
2023-04-30T13:52:13.474Z,99721.81
2023-04-30T13:54:41.702Z,99713.25
2023-04-30T13:57:08.913Z,99699.31
2023-04-30T13:59:40.789Z,99692.56
2023-04-30T14:02:10.596Z,99692.09
2023-04-30T14:04:38.500Z,99691.44
2023-04-30T14:07:06.492Z,99697.38
2023-04-30T14:09:42.532Z,99690.16
2023-04-30T14:12:09.774Z,99686.25
2023-04-30T14:14:39.172Z,99672.44
2023-04-30T14:17:08.990Z,99673.78
2023-04-30T14:19:37.090Z,99671.00
2023-04-30T14:22:09.587Z,99670.69
2023-04-30T14:24:36.902Z,99662.31
2023-04-30T14:27:07.089Z,99651.00
2023-04-30T14:29:34.295Z,99643.94
2023-04-30T14:32:10.230Z,99635.41
2023-04-30T14:34:44.852Z,99637.34
2023-04-30T14:37:11.996Z,99637.84
2023-04-30T14:39:39.139Z,99639.34
2023-04-30T14:42:08.816Z,99633.94
2023-04-30T14:44:41.484Z,99615.56
2023-04-30T14:47:11.853Z,99616.69
2023-04-30T14:49:41.139Z,99610.81
2023-04-30T14:52:23.074Z,99604.91
2023-04-30T14:54:56.251Z,99606.53
2023-04-30T14:57:26.561Z,99604.22
2023-04-30T14:59:59.885Z,99600.97
2023-04-30T15:02:27.243Z,99593.25
2023-04-30T15:04:57.392Z,99595.72
2023-04-30T15:07:31.658Z,99589.81
2023-04-30T15:13:27.829Z,99529.06
2023-04-30T15:15:58.913Z,99574.97
2023-04-30T15:18:28.574Z,99563.19
2023-04-30T15:20:56.341Z,99573.84
2023-04-30T15:23:39.358Z,99561.84
2023-04-30T15:26:06.691Z,99555.44
2023-04-30T15:28:34.646Z,99558.59
2023-04-30T15:31:02.244Z,99560.88
2023-04-30T15:33:32.588Z,99548.44
2023-04-30T15:36:05.564Z,99544.16
2023-04-30T15:38:35.015Z,99555.97
2023-04-30T15:41:14.163Z,99541.38
2023-04-30T15:43:41.472Z,99529.72
2023-04-30T15:46:08.884Z,99530.38
2023-04-30T15:48:39.854Z,99529.06
2023-04-30T15:51:10.474Z,99529.06
2023-04-30T15:53:41.751Z,99523.81
2023-04-30T15:56:12.167Z,99514.81
2023-04-30T15:58:47.910Z,99511.22
2023-04-30T16:01:14.995Z,99507.13
2023-04-30T16:03:42.188Z,99503.03
2023-04-30T16:06:09.932Z,99491.38
2023-04-30T16:08:37.401Z,99487.28
2023-04-30T16:11:04.549Z,99480.56
2023-04-30T16:13:31.557Z,99479.41
2023-04-30T16:15:58.573Z,99473.16
2023-04-30T16:18:25.509Z,99468.09
2023-04-30T16:20:52.843Z,99469.19
2023-04-30T16:23:19.860Z,99472.28
2023-04-30T16:25:46.755Z,99459.84
2023-04-30T16:28:13.805Z,99453.94
2023-04-30T16:30:41.931Z,99450.44
2023-04-30T16:33:09.033Z,99439.16
2023-04-30T16:35:36.132Z,99428.03
2023-04-30T16:38:03.072Z,99434.19
2023-04-30T16:40:31.117Z,99415.19
2023-04-30T16:42:59.683Z,99423.03
2023-04-30T16:45:27.213Z,99411.56
2023-04-30T16:47:54.341Z,99410.69
2023-04-30T16:50:21.470Z,99397.59
2023-04-30T16:52:48.525Z,99390.38
2023-04-30T16:55:15.474Z,99386.94
2023-04-30T16:57:42.548Z,99393.97
2023-04-30T17:00:11.610Z,99387.22
2023-04-30T17:02:41.005Z,99387.84
2023-04-30T17:05:10.544Z,99394.72
2023-04-30T17:07:38.168Z,99403.53
2023-04-30T17:10:06.277Z,99408.25
2023-04-30T17:12:33.563Z,99409.78
2023-04-30T17:15:00.620Z,99428.22
2023-04-30T17:17:27.792Z,99425.78
2023-04-30T17:19:54.990Z,99423.97
2023-04-30T17:22:25.026Z,99424.66
2023-04-30T17:24:52.351Z,99423.91
2023-04-30T17:27:19.467Z,99414.06
2023-04-30T17:29:46.458Z,99409.75
2023-04-30T17:32:17.458Z,99417.91
2023-04-30T17:34:44.821Z,99409.34
2023-04-30T17:37:12.166Z,99406.66
2023-04-30T17:39:39.087Z,99411.50
2023-04-30T17:42:06.460Z,99415.53
2023-04-30T17:44:34.149Z,99409.25
2023-04-30T17:47:01.397Z,99411.81
2023-04-30T17:49:28.703Z,99405.47
2023-04-30T17:51:55.837Z,99404.47
2023-04-30T17:54:22.868Z,99410.31
2023-04-30T17:56:49.861Z,99412.09
2023-04-30T17:59:16.785Z,99407.53
2023-04-30T18:01:43.766Z,99408.91
2023-04-30T18:04:16.137Z,99405.47
2023-04-30T18:06:43.320Z,99401.50
2023-04-30T18:09:10.563Z,99397.94
2023-04-30T18:11:37.452Z,99394.13
2023-04-30T18:14:07.286Z,99390.19
2023-04-30T18:16:35.120Z,99381.28
2023-04-30T18:19:02.991Z,99381.22
2023-04-30T18:21:29.905Z,99372.47
2023-04-30T18:23:56.940Z,99371.72
2023-04-30T18:26:24.852Z,99378.28
2023-04-30T18:28:52.276Z,99365.06
2023-04-30T18:31:19.353Z,99364.47
2023-04-30T18:33:46.324Z,99368.06
2023-04-30T18:36:13.489Z,99362.16
2023-04-30T18:38:40.621Z,99357.63
2023-04-30T18:41:08.256Z,99357.63
2023-04-30T18:43:37.396Z,99359.94
2023-04-30T18:46:06.154Z,99356.06
2023-04-30T18:48:33.254Z,99355.59
2023-04-30T18:51:00.924Z,99356.94
2023-04-30T18:53:28.026Z,99361.06
2023-04-30T18:55:57.452Z,99345.72
2023-04-30T18:58:24.544Z,99348.75
2023-04-30T19:00:51.810Z,99342.16
2023-04-30T19:03:19.165Z,99332.66
2023-04-30T19:05:46.243Z,99331.47
2023-04-30T19:08:13.201Z,99331.91
2023-04-30T19:10:40.171Z,99322.28
2023-04-30T19:13:07.235Z,99312.56
2023-04-30T19:15:34.276Z,99305.03
2023-04-30T19:18:01.413Z,99305.03
2023-04-30T19:20:28.457Z,99303.75
2023-04-30T19:22:55.525Z,99304.75
2023-04-30T19:25:23.574Z,99303.31
2023-04-30T19:27:51.541Z,99300.72
2023-04-30T19:30:18.481Z,99297.28
2023-04-30T19:32:45.486Z,99289.09
2023-04-30T19:35:12.736Z,99290.56
2023-04-30T19:37:39.857Z,99294.16
2023-04-30T19:40:13.210Z,99288.53
2023-04-30T19:42:40.305Z,99289.09
2023-04-30T19:45:09.049Z,99282.75
2023-04-30T19:47:36.938Z,99279.03
2023-04-30T19:50:04.122Z,99279.19
2023-04-30T19:52:32.130Z,99267.84
2023-04-30T19:54:59.713Z,99258.53
2023-04-30T19:57:28.199Z,99253.63
2023-04-30T19:59:55.628Z,99259.94
2023-04-30T20:02:22.871Z,99252.78
2023-04-30T20:04:49.828Z,99247.56
2023-04-30T20:07:16.923Z,99244.13
2023-04-30T20:09:43.933Z,99239.59
2023-04-30T20:12:10.846Z,99232.47
2023-04-30T20:14:38.168Z,99225.44
2023-04-30T20:17:05.343Z,99217.47
2023-04-30T20:19:32.567Z,99212.28
2023-04-30T20:21:59.521Z,99202.50
2023-04-30T20:24:26.425Z,99204.97
2023-04-30T20:26:53.639Z,99200.72
2023-04-30T20:29:23.150Z,99203.03
2023-04-30T20:31:50.568Z,99193.06
2023-04-30T20:34:17.777Z,99189.63
2023-04-30T20:36:45.075Z,99181.22
2023-04-30T20:39:12.094Z,99189.31
2023-04-30T20:41:39.500Z,99182.09
2023-04-30T20:44:06.955Z,99191.25
2023-04-30T20:46:34.389Z,99188.13
2023-04-30T20:49:04.572Z,99176.72
2023-04-30T20:51:31.556Z,99183.59
2023-04-30T20:53:58.584Z,99171.38
2023-04-30T20:56:26.006Z,99157.38
2023-04-30T20:58:53.930Z,99155.72
2023-04-30T21:01:21.088Z,99148.88
2023-04-30T21:03:48.977Z,99132.28
2023-04-30T21:06:17.573Z,99129.97
2023-04-30T21:08:44.720Z,99122.75
2023-04-30T21:11:14.287Z,99122.59
2023-04-30T21:13:41.857Z,99127.66
2023-04-30T21:16:09.251Z,99125.84
2023-04-30T21:18:36.737Z,99140.38
2023-04-30T21:21:05.071Z,99143.13
2023-04-30T21:23:32.800Z,99122.81
2023-04-30T21:26:00.015Z,99120.06
2023-04-30T21:28:27.242Z,99108.16
2023-04-30T21:30:54.746Z,99112.59
2023-04-30T21:33:22.034Z,99122.44
2023-04-30T21:35:48.915Z,99139.28
2023-04-30T21:38:16.488Z,99123.50
2023-04-30T21:40:43.633Z,99108.50
2023-04-30T21:43:10.687Z,99100.03
2023-04-30T21:45:37.675Z,99100.03
2023-04-30T21:48:05.683Z,99103.66
2023-04-30T21:50:33.479Z,99105.16
2023-04-30T21:53:00.874Z,99104.88
2023-04-30T21:55:27.863Z,99116.09
2023-04-30T21:57:55.018Z,99121.81
2023-04-30T22:00:21.986Z,99128.84
2023-04-30T22:02:49.737Z,99135.53
2023-04-30T22:05:18.149Z,99116.09
2023-04-30T22:07:46.795Z,99127.28
2023-04-30T22:10:14.885Z,99126.28
2023-04-30T22:12:43.311Z,99130.84
2023-04-30T22:15:12.644Z,99125.63
2023-04-30T22:17:40.831Z,99114.38
2023-04-30T22:20:09.992Z,99115.03
2023-04-30T22:22:37.223Z,99125.31
2023-04-30T22:25:04.815Z,99125.31
2023-04-30T22:27:32.351Z,99134.78
2023-04-30T22:29:59.424Z,99133.81
2023-04-30T22:32:26.617Z,99133.81
2023-04-30T22:34:53.713Z,99126.63
2023-04-30T22:37:20.705Z,99125.72
2023-04-30T22:39:48.534Z,99109.09
2023-04-30T22:42:16.953Z,99112.38
2023-04-30T22:44:45.529Z,99118.56
2023-04-30T22:47:12.745Z,99116.78
2023-04-30T22:49:39.738Z,99113.34
2023-04-30T22:52:07.282Z,99105.50
2023-04-30T22:54:35.358Z,99096.06
2023-04-30T22:57:03.166Z,99095.06
2023-04-30T22:59:30.187Z,99093.97
2023-04-30T23:01:57.426Z,99092.31
2023-04-30T23:04:26.678Z,99097.38
2023-04-30T23:06:54.512Z,99100.69
2023-04-30T23:09:21.475Z,99100.53
2023-04-30T23:11:48.408Z,99096.41
2023-04-30T23:14:15.521Z,99100.00
2023-04-30T23:16:42.914Z,99087.94
2023-04-30T23:19:10.491Z,99075.22
2023-04-30T23:21:37.594Z,99065.84
2023-04-30T23:24:05.244Z,99062.16
2023-04-30T23:26:32.396Z,99053.97
2023-04-30T23:28:59.404Z,99060.59
2023-04-30T23:31:27.354Z,99044.53
2023-04-30T23:33:54.630Z,99044.75
2023-04-30T23:36:22.078Z,99036.25
2023-04-30T23:38:49.706Z,99043.91
2023-04-30T23:41:16.722Z,99053.53
2023-04-30T23:43:43.979Z,99044.38
2023-04-30T23:46:11.035Z,99034.63
2023-04-30T23:48:38.088Z,99028.56
2023-04-30T23:51:05.609Z,99024.19
2023-04-30T23:53:32.653Z,99010.13
2023-04-30T23:55:59.713Z,99001.34
2023-04-30T23:58:30.039Z,99001.03
